createdAt,value
2023-03-06T00:01:18.087Z,71.40
2023-03-06T00:03:56.998Z,71.40
2023-03-06T00:06:23.869Z,71.40
2023-03-06T00:08:50.552Z,71.30
2023-03-06T00:11:17.601Z,71.30
2023-03-06T00:13:44.360Z,71.30
2023-03-06T00:16:17.212Z,71.30
2023-03-06T00:18:56.393Z,71.30
2023-03-06T00:21:28.247Z,71.30
2023-03-06T00:23:55.372Z,71.30
2023-03-06T00:26:23.915Z,71.30
2023-03-06T00:28:53.527Z,71.30
2023-03-06T00:31:20.451Z,71.40
2023-03-06T00:33:47.169Z,71.40
2023-03-06T00:36:20.324Z,71.40
2023-03-06T00:41:29.192Z,71.50
2023-03-06T00:44:11.145Z,71.50
2023-03-06T00:46:37.909Z,71.60
2023-03-06T00:49:13.847Z,71.60
2023-03-06T00:51:58.881Z,71.60
2023-03-06T00:54:38.595Z,71.60
2023-03-06T00:57:05.784Z,71.60
2023-03-06T00:59:50.362Z,71.50
2023-03-06T01:02:17.074Z,71.60
2023-03-06T01:04:43.931Z,71.50
2023-03-06T01:07:10.899Z,71.50
2023-03-06T01:09:37.897Z,71.50
2023-03-06T01:12:10.811Z,71.40
2023-03-06T01:14:56.906Z,71.30
2023-03-06T01:17:23.779Z,71.30
2023-03-06T01:19:50.510Z,71.30
2023-03-06T01:22:17.317Z,71.20
2023-03-06T01:24:44.325Z,71.20
2023-03-06T01:27:13.482Z,71.10
2023-03-06T01:29:40.663Z,71.10
2023-03-06T01:32:10.722Z,71.00
2023-03-06T01:34:37.403Z,71.00
2023-03-06T01:37:17.957Z,71.00
2023-03-06T01:39:44.844Z,71.00
2023-03-06T01:42:12.065Z,71.00
2023-03-06T01:45:13.170Z,71.00
2023-03-06T01:47:45.978Z,71.00
2023-03-06T01:50:13.048Z,71.00
2023-03-06T01:52:54.623Z,71.00
2023-03-06T01:55:26.293Z,71.00
2023-03-06T01:57:57.870Z,71.10
2023-03-06T02:00:27.128Z,71.10
2023-03-06T02:03:04.136Z,71.10
2023-03-06T02:05:44.803Z,71.10
2023-03-06T02:08:30.175Z,71.10
2023-03-06T02:11:12.328Z,71.20
2023-03-06T02:13:49.770Z,71.20
2023-03-06T02:16:18.708Z,71.20
2023-03-06T02:18:49.468Z,71.30
2023-03-06T02:21:30.584Z,71.30
2023-03-06T02:24:39.436Z,71.20
2023-03-06T02:27:10.461Z,71.20
2023-03-06T02:29:40.603Z,71.10
2023-03-06T02:35:13.659Z,71.10
2023-03-06T02:37:53.754Z,71.00
2023-03-06T02:40:23.518Z,70.90
2023-03-06T02:42:56.519Z,71.00
2023-03-06T02:45:36.987Z,71.00
2023-03-06T02:48:04.484Z,70.90
2023-03-06T02:50:32.392Z,70.80
2023-03-06T02:52:59.133Z,70.80
2023-03-06T02:55:26.911Z,70.80
2023-03-06T02:57:53.659Z,70.80
2023-03-06T03:05:42.906Z,70.60
2023-03-06T03:08:22.952Z,70.70
2023-03-06T03:10:49.727Z,70.70
2023-03-06T03:13:16.718Z,70.70
2023-03-06T03:15:44.312Z,70.60
2023-03-06T03:18:17.483Z,70.70
2023-03-06T03:20:44.288Z,70.70
2023-03-06T03:23:23.303Z,70.60
2023-03-06T03:25:50.598Z,70.70
2023-03-06T03:28:32.734Z,70.60
2023-03-06T03:34:06.203Z,70.70
2023-03-06T03:36:39.908Z,70.70
2023-03-06T03:39:19.093Z,70.80
2023-03-06T03:41:52.039Z,70.90
2023-03-06T03:44:18.893Z,70.90
2023-03-06T03:46:53.141Z,70.90
2023-03-06T03:49:22.998Z,71.00
2023-03-06T03:51:52.879Z,71.00
2023-03-06T03:54:35.257Z,71.10
2023-03-06T03:57:17.566Z,71.20
2023-03-06T03:59:59.618Z,71.20
2023-03-06T04:02:38.766Z,71.20
2023-03-06T04:11:13.794Z,71.40
2023-03-06T04:13:43.561Z,71.50
2023-03-06T04:16:16.773Z,71.60
2023-03-06T04:19:15.856Z,71.60
2023-03-06T04:21:42.661Z,71.70
2023-03-06T04:24:09.379Z,71.60
2023-03-06T04:26:36.862Z,71.70
2023-03-06T04:29:03.690Z,71.70
2023-03-06T04:31:30.569Z,71.70
2023-03-06T04:33:57.498Z,71.80
2023-03-06T04:36:32.908Z,71.80
2023-03-06T04:39:01.690Z,71.80
2023-03-06T04:41:28.674Z,71.70
2023-03-06T04:44:04.880Z,71.70
2023-03-06T04:49:29.587Z,71.80
2023-03-06T04:51:56.306Z,71.70
2023-03-06T04:54:23.073Z,71.70
2023-03-06T04:56:53.753Z,71.80
2023-03-06T04:59:20.568Z,71.70
2023-03-06T05:01:47.535Z,71.70
2023-03-06T05:04:14.373Z,71.70
2023-03-06T05:06:41.160Z,71.70
2023-03-06T05:09:13.450Z,71.70
2023-03-06T05:11:51.725Z,71.70
2023-03-06T05:14:18.488Z,71.70
2023-03-06T05:16:51.412Z,71.70
2023-03-06T05:19:18.214Z,71.70
2023-03-06T05:21:46.370Z,71.70
2023-03-06T05:24:34.268Z,71.70
2023-03-06T05:27:00.999Z,71.70
2023-03-06T05:29:28.105Z,71.70
2023-03-06T05:32:11.021Z,71.70
2023-03-06T05:34:39.154Z,71.70
2023-03-06T05:37:09.256Z,71.70
2023-03-06T05:39:40.206Z,71.70
2023-03-06T05:42:07.029Z,71.70
2023-03-06T05:44:35.080Z,71.70
2023-03-06T05:47:02.439Z,71.70
2023-03-06T05:49:33.921Z,71.70
2023-03-06T05:52:04.030Z,71.70
2023-03-06T05:54:43.166Z,71.70
2023-03-06T05:57:28.309Z,71.70
2023-03-06T05:59:58.120Z,71.70
2023-03-06T06:02:34.194Z,71.70
2023-03-06T06:07:59.246Z,71.70
2023-03-06T06:14:16.027Z,71.70
2023-03-06T06:16:42.877Z,71.60
2023-03-06T06:19:24.822Z,71.50
2023-03-06T06:21:54.072Z,71.60
2023-03-06T06:24:36.589Z,71.60
2023-03-06T06:27:04.138Z,71.60
2023-03-06T06:29:31.493Z,71.60
2023-03-06T06:31:59.019Z,71.60
2023-03-06T06:34:46.836Z,71.60
2023-03-06T06:37:17.173Z,71.50
2023-03-06T06:39:44.190Z,71.60
2023-03-06T06:42:29.838Z,71.50
2023-03-06T06:52:05.734Z,71.70
2023-03-06T06:58:07.024Z,71.80
2023-03-06T07:04:31.861Z,72.10
2023-03-06T07:07:04.705Z,72.10
2023-03-06T07:09:43.778Z,72.10
2023-03-06T07:12:10.650Z,72.20
2023-03-06T07:14:56.384Z,72.00
2023-03-06T07:17:23.085Z,72.00
2023-03-06T07:22:51.219Z,71.90
2023-03-06T07:25:19.283Z,72.00
2023-03-06T07:30:26.846Z,71.90
2023-03-06T07:33:10.236Z,71.90
2023-03-06T07:35:37.482Z,72.00
2023-03-06T07:38:07.433Z,71.80
2023-03-06T07:40:39.075Z,71.90
2023-03-06T07:43:19.008Z,71.80
2023-03-06T07:45:47.408Z,71.90
2023-03-06T07:48:15.110Z,71.70
2023-03-06T07:50:42.671Z,71.80
2023-03-06T07:53:10.813Z,71.70
2023-03-06T07:55:58.182Z,71.70
2023-03-06T07:58:25.350Z,71.80
2023-03-06T08:01:06.610Z,71.70
2023-03-06T08:03:39.177Z,71.90
2023-03-06T08:06:27.111Z,71.80
2023-03-06T08:08:55.733Z,72.00
2023-03-06T08:11:25.892Z,71.90
2023-03-06T08:13:53.857Z,71.80
2023-03-06T08:19:21.935Z,71.90
2023-03-06T08:22:07.987Z,72.00
2023-03-06T08:24:35.066Z,71.90
2023-03-06T08:27:01.827Z,71.70
2023-03-06T08:29:28.494Z,71.60
2023-03-06T08:31:55.341Z,71.40
2023-03-06T08:34:24.533Z,71.40
2023-03-06T08:36:51.732Z,71.40
2023-03-06T08:39:18.576Z,71.30
2023-03-06T08:41:45.271Z,71.40
2023-03-06T08:44:12.266Z,71.30
2023-03-06T08:46:39.379Z,71.40
2023-03-06T08:49:06.166Z,71.60
2023-03-06T08:51:33.396Z,71.50
2023-03-06T08:54:00.366Z,71.60
2023-03-06T08:56:30.082Z,71.60
2023-03-06T08:58:58.304Z,71.60
2023-03-06T09:01:37.783Z,71.50
2023-03-06T09:04:08.333Z,71.50
2023-03-06T09:06:38.242Z,71.50
2023-03-06T09:09:06.304Z,71.40
2023-03-06T09:11:33.831Z,71.40
2023-03-06T09:14:00.585Z,71.40
2023-03-06T09:16:27.849Z,71.40
2023-03-06T09:18:54.827Z,71.40
2023-03-06T09:21:22.657Z,71.50
2023-03-06T09:23:49.686Z,71.50
2023-03-06T09:26:16.845Z,71.50
2023-03-06T09:28:43.729Z,71.50
2023-03-06T09:31:12.724Z,71.40
2023-03-06T09:33:39.753Z,71.50
2023-03-06T09:36:08.116Z,71.50
2023-03-06T09:38:35.172Z,71.60
2023-03-06T09:41:14.069Z,71.80
2023-03-06T09:43:45.294Z,71.90
2023-03-06T09:46:49.811Z,72.10
2023-03-06T09:49:34.753Z,72.20
2023-03-06T09:52:28.281Z,72.30
2023-03-06T09:55:00.838Z,72.40
2023-03-06T09:57:37.308Z,72.50
2023-03-06T10:00:30.270Z,72.50
2023-03-06T10:03:25.310Z,72.60
2023-03-06T10:06:14.928Z,72.60
2023-03-06T10:08:47.412Z,72.60
2023-03-06T10:11:33.436Z,72.60
2023-03-06T10:14:19.520Z,72.50
2023-03-06T10:16:46.412Z,72.40
2023-03-06T10:19:18.988Z,72.20
2023-03-06T10:22:00.007Z,72.20
2023-03-06T10:24:45.252Z,72.10
2023-03-06T10:27:47.712Z,72.20
2023-03-06T10:30:38.955Z,72.20
2023-03-06T10:33:30.290Z,72.40
2023-03-06T10:35:57.454Z,72.60
2023-03-06T10:38:38.253Z,72.80
2023-03-06T10:41:27.560Z,72.90
2023-03-06T10:44:00.397Z,73.00
2023-03-06T10:46:32.440Z,73.00
2023-03-06T10:49:01.533Z,73.10
2023-03-06T10:51:29.866Z,73.20
2023-03-06T10:54:14.883Z,73.20
2023-03-06T10:56:42.559Z,73.20
2023-03-06T10:59:12.248Z,73.40
2023-03-06T11:01:45.136Z,73.20
2023-03-06T11:04:23.756Z,73.30
2023-03-06T11:18:17.857Z,73.60
2023-03-06T11:20:53.141Z,73.70
2023-03-06T11:23:37.238Z,73.70
2023-03-06T11:26:32.586Z,73.80
2023-03-06T11:29:22.762Z,74.00
2023-03-06T11:31:59.627Z,74.10
2023-03-06T11:34:47.256Z,74.20
2023-03-06T11:37:37.264Z,74.20
2023-03-06T11:40:26.966Z,74.20
2023-03-06T11:43:11.814Z,74.30
2023-03-06T11:45:58.129Z,74.30
2023-03-06T11:48:43.402Z,74.30
2023-03-06T11:55:08.867Z,74.10
2023-03-06T11:58:06.978Z,74.40
2023-03-06T12:00:46.794Z,74.50
2023-03-06T12:03:47.960Z,74.50
2023-03-06T12:06:39.635Z,74.40
2023-03-06T12:09:12.755Z,74.50
2023-03-06T12:11:44.691Z,74.70
2023-03-06T12:14:20.923Z,74.90
2023-03-06T12:17:18.953Z,74.70
2023-03-06T12:20:07.150Z,74.60
2023-03-06T12:22:57.662Z,74.70
2023-03-06T12:25:29.244Z,73.80
2023-03-06T12:28:08.224Z,75.10
2023-03-06T12:31:07.050Z,74.70
2023-03-06T12:33:46.460Z,74.70
2023-03-06T12:36:30.372Z,74.20
2023-03-06T12:39:13.504Z,74.30
2023-03-06T13:05:37.325Z,74.90
2023-03-06T13:08:24.257Z,74.60
2023-03-06T13:11:22.867Z,74.90
2023-03-06T13:13:49.738Z,74.90
2023-03-06T13:16:32.562Z,74.90
2023-03-06T13:19:02.292Z,74.90
2023-03-06T13:22:01.349Z,75.00
2023-03-06T13:24:31.369Z,74.90
2023-03-06T13:38:54.815Z,74.30
2023-03-06T13:41:35.925Z,74.40
2023-03-06T13:44:25.160Z,74.00
2023-03-06T13:47:05.739Z,74.40
2023-03-06T13:49:33.887Z,74.30
2023-03-06T14:00:10.034Z,73.70
2023-03-06T14:02:57.532Z,74.00
2023-03-06T14:05:25.580Z,74.10
2023-03-06T14:08:16.877Z,74.10
2023-03-06T14:10:45.386Z,73.80
2023-03-06T14:13:23.341Z,73.90
2023-03-06T14:15:55.382Z,73.40
2023-03-06T14:18:31.348Z,73.30
2023-03-06T14:21:02.372Z,73.10
2023-03-06T14:23:42.232Z,73.10
2023-03-06T14:26:15.187Z,73.10
2023-03-06T14:28:53.907Z,73.50
2023-03-06T14:31:30.510Z,73.50
2023-03-06T14:33:59.038Z,73.00
2023-03-06T14:36:32.263Z,73.30
2023-03-06T14:39:05.417Z,73.20
2023-03-06T14:41:34.474Z,73.20
2023-03-06T14:44:22.682Z,72.80
2023-03-06T14:46:57.894Z,73.00
2023-03-06T14:49:26.429Z,73.20
2023-03-06T14:51:55.620Z,73.10
2023-03-06T14:54:32.307Z,73.10
2023-03-06T14:57:05.924Z,73.10
2023-03-06T14:59:42.285Z,73.00
2023-03-06T15:02:13.578Z,72.80
2023-03-06T15:04:44.256Z,72.50
2023-03-06T15:07:18.519Z,72.40
2023-03-06T15:09:49.673Z,72.50
2023-03-06T15:12:34.774Z,72.20
2023-03-06T15:15:02.662Z,72.30
2023-03-06T15:17:32.335Z,72.50
2023-03-06T15:20:00.866Z,72.30
2023-03-06T15:22:37.752Z,72.20
2023-03-06T15:25:22.895Z,72.10
2023-03-06T15:27:53.886Z,72.10
2023-03-06T15:30:36.012Z,72.30
2023-03-06T15:33:24.204Z,72.00
2023-03-06T15:35:58.142Z,72.10
2023-03-06T15:38:40.820Z,72.20
2023-03-06T15:41:22.008Z,72.20
2023-03-06T15:43:48.805Z,72.10
2023-03-06T15:46:15.498Z,72.00
2023-03-06T15:48:56.704Z,72.10
2023-03-06T15:51:23.406Z,71.90
2023-03-06T15:53:51.360Z,72.00
2023-03-06T15:56:28.669Z,72.00
2023-03-06T15:58:57.410Z,72.00
2023-03-06T16:01:24.349Z,72.00
2023-03-06T16:03:51.218Z,71.90
2023-03-06T16:06:20.909Z,71.90
2023-03-06T16:08:47.686Z,72.00
2023-03-06T16:11:29.890Z,72.10
2023-03-06T16:14:01.540Z,72.00
2023-03-06T16:16:36.214Z,72.00
2023-03-06T16:19:04.952Z,72.00
2023-03-06T16:21:32.775Z,72.10
2023-03-06T16:23:59.426Z,71.90
2023-03-06T16:26:32.679Z,72.00
2023-03-06T16:28:59.764Z,72.10
2023-03-06T16:31:27.145Z,72.00
2023-03-06T16:33:53.810Z,72.00
2023-03-06T16:36:26.693Z,72.00
2023-03-06T16:38:54.354Z,72.00
2023-03-06T16:41:21.056Z,72.00
2023-03-06T16:43:48.492Z,71.90
2023-03-06T16:46:20.856Z,71.80
2023-03-06T16:48:53.781Z,71.70
2023-03-06T16:51:28.791Z,71.50
2023-03-06T16:53:55.413Z,71.50
2023-03-06T16:56:22.087Z,71.60
2023-03-06T16:58:48.877Z,71.50
2023-03-06T17:01:19.991Z,71.70
2023-03-06T17:03:46.630Z,71.60
2023-03-06T17:06:18.691Z,71.60
2023-03-06T17:08:46.243Z,71.70
2023-03-06T17:11:13.710Z,71.60
2023-03-06T17:13:40.746Z,71.70
2023-03-06T17:16:11.242Z,71.60
2023-03-06T17:18:37.985Z,71.70
2023-03-06T17:21:04.867Z,71.80
2023-03-06T17:39:06.514Z,71.80
2023-03-06T17:41:34.335Z,71.80
2023-03-06T17:44:02.295Z,72.00
2023-03-06T17:46:32.326Z,71.90
2023-03-06T17:49:11.319Z,72.00
2023-03-06T17:51:43.639Z,72.10
2023-03-06T17:54:30.242Z,72.00
2023-03-06T17:57:03.466Z,72.10
2023-03-06T17:59:31.192Z,72.00
2023-03-06T18:02:15.788Z,72.10
2023-03-06T18:05:00.884Z,72.10
2023-03-06T18:07:41.511Z,72.10
2023-03-06T18:10:18.065Z,72.10
2023-03-06T18:12:51.372Z,72.20
2023-03-06T18:15:33.868Z,72.20
2023-03-06T18:18:14.046Z,72.20
2023-03-06T18:20:42.029Z,72.20
2023-03-06T18:23:10.895Z,72.20
2023-03-06T18:25:40.514Z,72.20
2023-03-06T18:31:42.545Z,72.30
2023-03-06T18:34:15.692Z,72.20
2023-03-06T18:37:00.316Z,72.30
2023-03-06T18:39:27.195Z,72.30
2023-03-06T18:42:03.116Z,72.40
2023-03-06T18:44:36.485Z,72.40
2023-03-06T18:47:04.000Z,72.40
2023-03-06T18:49:31.049Z,72.30
2023-03-06T18:51:57.795Z,72.40
2023-03-06T18:54:33.648Z,72.30
2023-03-06T18:57:00.786Z,72.30
2023-03-06T18:59:34.953Z,72.40
2023-03-06T19:02:03.534Z,72.40
2023-03-06T19:05:01.480Z,72.40
2023-03-06T19:07:28.278Z,72.40
2023-03-06T19:10:12.981Z,72.30
2023-03-06T19:13:13.809Z,72.40
2023-03-06T19:16:05.437Z,72.40
2023-03-06T19:18:41.724Z,72.40
2023-03-06T19:21:22.772Z,72.40
2023-03-06T19:24:06.595Z,72.40
2023-03-06T19:26:57.620Z,72.40
2023-03-06T19:29:28.520Z,72.50
2023-03-06T19:32:08.678Z,72.40
2023-03-06T19:34:58.662Z,72.50
2023-03-06T19:37:26.811Z,72.50
2023-03-06T19:40:16.007Z,72.50
2023-03-06T19:42:42.733Z,72.50
2023-03-06T19:45:09.909Z,72.50
2023-03-06T19:47:36.724Z,72.50
2023-03-06T19:51:20.818Z,72.50
2023-03-06T19:53:57.481Z,72.50
2023-03-06T19:56:34.778Z,72.50
2023-03-06T19:59:10.679Z,72.50
2023-03-06T20:01:40.536Z,72.60
2023-03-06T20:04:19.873Z,72.60
2023-03-06T20:08:01.607Z,72.60
2023-03-06T20:10:28.423Z,72.60
2023-03-06T20:12:55.219Z,72.50
2023-03-06T20:15:22.867Z,72.60
2023-03-06T20:17:49.508Z,72.60
2023-03-06T20:20:16.387Z,72.60
2023-03-06T20:22:43.157Z,72.60
2023-03-06T20:25:10.145Z,72.60
2023-03-06T20:27:37.522Z,72.60
2023-03-06T20:30:07.001Z,72.60
2023-03-06T20:32:34.724Z,72.50
2023-03-06T20:35:01.589Z,72.50
2023-03-06T20:37:28.340Z,72.50
2023-03-06T20:39:55.085Z,72.50
2023-03-06T20:42:21.712Z,72.50
2023-03-06T20:44:48.352Z,72.50
2023-03-06T20:47:15.469Z,72.50
2023-03-06T20:49:42.235Z,72.50
2023-03-06T20:52:08.869Z,72.50
2023-03-06T20:54:35.837Z,72.50
2023-03-06T20:57:05.150Z,72.50
2023-03-06T20:59:32.020Z,72.50
2023-03-06T21:01:58.954Z,72.40
2023-03-06T21:04:25.616Z,72.40
2023-03-06T21:06:53.213Z,72.40
2023-03-06T21:09:19.933Z,72.40
2023-03-06T21:11:47.143Z,72.40
2023-03-06T21:14:14.476Z,72.40
2023-03-06T21:16:42.001Z,72.40
2023-03-06T21:19:09.680Z,72.30
2023-03-06T21:21:36.452Z,72.40
2023-03-06T21:24:03.519Z,72.30
2023-03-06T21:26:33.692Z,72.30
2023-03-06T21:29:01.673Z,72.30
2023-03-06T21:31:29.799Z,72.30
2023-03-06T21:33:57.358Z,72.30
2023-03-06T21:36:24.690Z,72.30
2023-03-06T21:38:52.646Z,72.30
2023-03-06T21:41:28.718Z,72.30
2023-03-06T21:44:03.895Z,72.30
2023-03-06T21:46:31.415Z,72.40
2023-03-06T21:48:59.538Z,72.40
2023-03-06T21:51:26.938Z,72.40
2023-03-06T21:53:54.929Z,72.30
2023-03-06T21:56:25.307Z,72.40
2023-03-06T21:58:52.443Z,72.40
2023-03-06T22:01:22.838Z,72.40
2023-03-06T22:03:49.568Z,72.50
2023-03-06T22:06:22.356Z,72.40
2023-03-06T22:08:49.202Z,72.40
2023-03-06T22:11:18.640Z,72.40
2023-03-06T22:13:46.330Z,72.40
2023-03-06T22:16:13.176Z,72.40
2023-03-06T22:18:43.739Z,72.40
2023-03-06T22:21:13.025Z,72.40
2023-03-06T22:23:40.499Z,72.30
2023-03-06T22:26:11.212Z,72.30
2023-03-06T22:28:38.386Z,72.30
2023-03-06T22:31:11.382Z,72.30
2023-03-06T22:33:38.069Z,72.30
2023-03-06T22:36:07.765Z,72.30
2023-03-06T22:38:36.104Z,72.40
2023-03-06T22:41:03.238Z,72.40
2023-03-06T22:43:30.033Z,72.30
2023-03-06T22:46:01.808Z,72.30
2023-03-06T22:48:28.820Z,72.40
2023-03-06T22:50:55.805Z,72.30
2023-03-06T22:53:22.529Z,72.30
2023-03-06T22:55:50.429Z,72.30
2023-03-06T22:58:17.247Z,72.30
2023-03-06T23:00:43.877Z,72.30
2023-03-06T23:03:10.701Z,72.30
2023-03-06T23:05:41.425Z,72.30
2023-03-06T23:08:08.398Z,72.30
2023-03-06T23:10:39.287Z,72.20
2023-03-06T23:13:06.150Z,72.20
2023-03-06T23:15:35.112Z,72.20
2023-03-06T23:18:02.063Z,72.20
2023-03-06T23:20:28.879Z,72.20
2023-03-06T23:22:55.542Z,72.30
2023-03-06T23:25:22.561Z,72.30
2023-03-06T23:27:49.478Z,72.30
2023-03-06T23:30:16.266Z,72.30
2023-03-06T23:32:45.770Z,72.30
2023-03-06T23:35:12.788Z,72.20
2023-03-06T23:37:39.632Z,72.30
2023-03-06T23:40:08.324Z,72.30
2023-03-06T23:42:35.267Z,72.30
2023-03-06T23:45:02.237Z,72.30
2023-03-06T23:47:32.749Z,72.30
2023-03-06T23:49:59.521Z,72.40
2023-03-06T23:52:26.915Z,72.30
2023-03-06T23:54:53.720Z,72.30
2023-03-06T23:57:20.608Z,72.30
2023-03-06T23:59:47.415Z,72.30
